sensor_id;sensor_type;location;lat;lon;timestamp;temperature;humidity
2749;DHT22;1382;52.142;11.618;2023-03-01T00:02:19;2.40;51.40
2749;DHT22;1382;52.142;11.618;2023-03-01T00:04:46;2.20;51.20
2749;DHT22;1382;52.142;11.618;2023-03-01T00:07:13;2.20;51.30
2749;DHT22;1382;52.142;11.618;2023-03-01T00:09:40;2.30;51.30
2749;DHT22;1382;52.142;11.618;2023-03-01T00:12:07;2.20;51.30
2749;DHT22;1382;52.142;11.618;2023-03-01T00:14:34;2.20;51.20
2749;DHT22;1382;52.142;11.618;2023-03-01T00:17:02;2.10;51.10
2749;DHT22;1382;52.142;11.618;2023-03-01T00:19:31;2.10;51.20
2749;DHT22;1382;52.142;11.618;2023-03-01T00:21:58;2.10;51.20
2749;DHT22;1382;52.142;11.618;2023-03-01T00:24:25;2.10;51.20
2749;DHT22;1382;52.142;11.618;2023-03-01T00:26:53;2.00;51.10
2749;DHT22;1382;52.142;11.618;2023-03-01T00:29:20;2.00;51.10
2749;DHT22;1382;52.142;11.618;2023-03-01T00:31:48;1.90;51.10
2749;DHT22;1382;52.142;11.618;2023-03-01T00:34:17;1.90;51.10
2749;DHT22;1382;52.142;11.618;2023-03-01T00:36:45;1.90;51.20
2749;DHT22;1382;52.142;11.618;2023-03-01T00:39:14;1.90;51.20
2749;DHT22;1382;52.142;11.618;2023-03-01T00:41:42;1.90;51.10
2749;DHT22;1382;52.142;11.618;2023-03-01T00:44:09;1.80;51.00
2749;DHT22;1382;52.142;11.618;2023-03-01T00:46:36;1.80;51.10
2749;DHT22;1382;52.142;11.618;2023-03-01T00:49:03;1.80;51.00
2749;DHT22;1382;52.142;11.618;2023-03-01T00:51:30;1.80;51.10
2749;DHT22;1382;52.142;11.618;2023-03-01T00:54:00;1.80;51.10
2749;DHT22;1382;52.142;11.618;2023-03-01T00:56:27;1.70;51.00
2749;DHT22;1382;52.142;11.618;2023-03-01T00:58:55;1.70;51.60
2749;DHT22;1382;52.142;11.618;2023-03-01T01:01:24;1.60;50.90
2749;DHT22;1382;52.142;11.618;2023-03-01T01:03:54;1.60;50.90
2749;DHT22;1382;52.142;11.618;2023-03-01T01:06:23;1.60;51.00
2749;DHT22;1382;52.142;11.618;2023-03-01T01:08:52;1.60;50.90
2749;DHT22;1382;52.142;11.618;2023-03-01T01:11:22;1.50;50.90
2749;DHT22;1382;52.142;11.618;2023-03-01T01:13:50;1.50;50.90
2749;DHT22;1382;52.142;11.618;2023-03-01T01:16:18;1.50;50.80
2749;DHT22;1382;52.142;11.618;2023-03-01T01:18:45;1.50;50.80
2749;DHT22;1382;52.142;11.618;2023-03-01T01:21:14;1.40;50.80
2749;DHT22;1382;52.142;11.618;2023-03-01T01:23:42;1.40;50.80
2749;DHT22;1382;52.142;11.618;2023-03-01T01:26:11;1.40;50.80
2749;DHT22;1382;52.142;11.618;2023-03-01T01:28:40;1.40;50.80
2749;DHT22;1382;52.142;11.618;2023-03-01T01:31:07;1.30;50.70
2749;DHT22;1382;52.142;11.618;2023-03-01T01:33:34;1.40;50.80
2749;DHT22;1382;52.142;11.618;2023-03-01T01:36:01;1.30;50.80
2749;DHT22;1382;52.142;11.618;2023-03-01T01:38:29;1.30;50.80
2749;DHT22;1382;52.142;11.618;2023-03-01T01:40:56;1.20;50.70
2749;DHT22;1382;52.142;11.618;2023-03-01T01:43:25;1.20;50.80
2749;DHT22;1382;52.142;11.618;2023-03-01T01:45:55;1.20;50.70
2749;DHT22;1382;52.142;11.618;2023-03-01T01:48:28;1.20;50.70
2749;DHT22;1382;52.142;11.618;2023-03-01T01:51:00;1.20;50.70
2749;DHT22;1382;52.142;11.618;2023-03-01T01:53:27;1.10;50.60
2749;DHT22;1382;52.142;11.618;2023-03-01T01:55:58;1.30;50.80
2749;DHT22;1382;52.142;11.618;2023-03-01T01:58:29;1.10;50.60
2749;DHT22;1382;52.142;11.618;2023-03-01T02:00:58;1.10;50.70
2749;DHT22;1382;52.142;11.618;2023-03-01T02:03:27;0.90;50.60
2749;DHT22;1382;52.142;11.618;2023-03-01T02:05:59;1.00;50.70
2749;DHT22;1382;52.142;11.618;2023-03-01T02:08:29;1.00;50.60
2749;DHT22;1382;52.142;11.618;2023-03-01T02:10:58;0.90;50.60
2749;DHT22;1382;52.142;11.618;2023-03-01T02:13:27;1.00;50.70
2749;DHT22;1382;52.142;11.618;2023-03-01T02:15:57;0.90;50.60
2749;DHT22;1382;52.142;11.618;2023-03-01T02:18:25;0.90;50.60
2749;DHT22;1382;52.142;11.618;2023-03-01T02:21:05;1.00;51.10
2749;DHT22;1382;52.142;11.618;2023-03-01T02:23:34;0.80;50.40
2749;DHT22;1382;52.142;11.618;2023-03-01T02:26:05;0.80;50.50
2749;DHT22;1382;52.142;11.618;2023-03-01T02:28:36;0.80;50.50
2749;DHT22;1382;52.142;11.618;2023-03-01T02:31:05;0.80;50.60
2749;DHT22;1382;52.142;11.618;2023-03-01T02:33:35;0.70;50.50
2749;DHT22;1382;52.142;11.618;2023-03-01T02:36:06;0.70;50.50
2749;DHT22;1382;52.142;11.618;2023-03-01T02:38:33;0.70;50.50
2749;DHT22;1382;52.142;11.618;2023-03-01T02:41:02;0.70;50.50
2749;DHT22;1382;52.142;11.618;2023-03-01T02:43:31;0.70;50.50
2749;DHT22;1382;52.142;11.618;2023-03-01T02:46:06;0.70;50.50
2749;DHT22;1382;52.142;11.618;2023-03-01T02:48:41;0.60;50.40
2749;DHT22;1382;52.142;11.618;2023-03-01T02:51:18;0.60;50.40
2749;DHT22;1382;52.142;11.618;2023-03-01T02:53:56;0.60;50.50
2749;DHT22;1382;52.142;11.618;2023-03-01T02:56:26;0.60;50.50
2749;DHT22;1382;52.142;11.618;2023-03-01T02:58:52;0.60;50.60
2749;DHT22;1382;52.142;11.618;2023-03-01T03:01:22;0.50;50.50
2749;DHT22;1382;52.142;11.618;2023-03-01T03:03:48;0.60;50.50
2749;DHT22;1382;52.142;11.618;2023-03-01T03:06:15;0.50;50.40
2749;DHT22;1382;52.142;11.618;2023-03-01T03:08:42;0.50;50.50
2749;DHT22;1382;52.142;11.618;2023-03-01T03:11:09;0.40;50.40
2749;DHT22;1382;52.142;11.618;2023-03-01T03:16:59;0.40;50.30
2749;DHT22;1382;52.142;11.618;2023-03-01T03:19:26;0.30;50.30
2749;DHT22;1382;52.142;11.618;2023-03-01T03:21:53;0.30;50.40
2749;DHT22;1382;52.142;11.618;2023-03-01T03:24:20;0.50;50.50
2749;DHT22;1382;52.142;11.618;2023-03-01T03:26:47;0.40;50.40
2749;DHT22;1382;52.142;11.618;2023-03-01T03:29:14;0.30;50.30
2749;DHT22;1382;52.142;11.618;2023-03-01T03:31:42;0.50;50.40
2749;DHT22;1382;52.142;11.618;2023-03-01T03:34:10;0.30;50.30
2749;DHT22;1382;52.142;11.618;2023-03-01T03:36:37;0.30;50.30
2749;DHT22;1382;52.142;11.618;2023-03-01T03:39:05;0.20;50.20
2749;DHT22;1382;52.142;11.618;2023-03-01T03:41:34;0.20;50.20
2749;DHT22;1382;52.142;11.618;2023-03-01T03:44:02;0.30;50.20
2749;DHT22;1382;52.142;11.618;2023-03-01T03:46:29;0.20;50.20
2749;DHT22;1382;52.142;11.618;2023-03-01T03:48:56;0.20;50.20
2749;DHT22;1382;52.142;11.618;2023-03-01T03:51:24;0.20;50.10
2749;DHT22;1382;52.142;11.618;2023-03-01T03:53:51;0.20;50.10
2749;DHT22;1382;52.142;11.618;2023-03-01T03:56:18;0.10;50.10
2749;DHT22;1382;52.142;11.618;2023-03-01T03:58:45;0.10;50.10
2749;DHT22;1382;52.142;11.618;2023-03-01T04:01:12;0.10;50.10
2749;DHT22;1382;52.142;11.618;2023-03-01T04:03:39;0.20;50.10
2749;DHT22;1382;52.142;11.618;2023-03-01T04:06:06;0.10;50.00
2749;DHT22;1382;52.142;11.618;2023-03-01T04:08:34;0.10;50.00
2749;DHT22;1382;52.142;11.618;2023-03-01T04:11:03;0.10;50.00
2749;DHT22;1382;52.142;11.618;2023-03-01T04:13:30;0.10;50.00
2749;DHT22;1382;52.142;11.618;2023-03-01T04:15:59;0.00;49.90
2749;DHT22;1382;52.142;11.618;2023-03-01T04:18:26;0.00;49.90
2749;DHT22;1382;52.142;11.618;2023-03-01T04:20:53;-0.10;49.90
2749;DHT22;1382;52.142;11.618;2023-03-01T04:23:20;0.10;50.10
2749;DHT22;1382;52.142;11.618;2023-03-01T04:25:50;-0.10;49.90
2749;DHT22;1382;52.142;11.618;2023-03-01T04:28:17;-0.10;49.90
2749;DHT22;1382;52.142;11.618;2023-03-01T04:30:44;-0.10;49.90
2749;DHT22;1382;52.142;11.618;2023-03-01T04:33:11;-0.20;49.80
2749;DHT22;1382;52.142;11.618;2023-03-01T04:35:38;-0.10;50.00
2749;DHT22;1382;52.142;11.618;2023-03-01T04:38:05;-0.20;49.80
2749;DHT22;1382;52.142;11.618;2023-03-01T04:40:33;0.00;50.00
2749;DHT22;1382;52.142;11.618;2023-03-01T04:43:01;-0.30;49.80
2749;DHT22;1382;52.142;11.618;2023-03-01T04:45:29;-0.20;49.80
2749;DHT22;1382;52.142;11.618;2023-03-01T04:47:56;-0.30;49.70
2749;DHT22;1382;52.142;11.618;2023-03-01T04:50:23;-0.30;49.70
2749;DHT22;1382;52.142;11.618;2023-03-01T04:52:50;-0.10;49.90
2749;DHT22;1382;52.142;11.618;2023-03-01T04:55:17;-0.30;49.70
2749;DHT22;1382;52.142;11.618;2023-03-01T04:57:44;-0.30;49.70
2749;DHT22;1382;52.142;11.618;2023-03-01T05:00:13;-0.30;49.70
2749;DHT22;1382;52.142;11.618;2023-03-01T05:02:40;-0.30;49.70
2749;DHT22;1382;52.142;11.618;2023-03-01T05:05:07;-0.30;49.70
2749;DHT22;1382;52.142;11.618;2023-03-01T05:07:34;-0.40;49.70
2749;DHT22;1382;52.142;11.618;2023-03-01T05:10:01;-0.40;49.70
2749;DHT22;1382;52.142;11.618;2023-03-01T05:12:28;-0.40;49.60
2749;DHT22;1382;52.142;11.618;2023-03-01T05:14:55;-0.30;49.70
2749;DHT22;1382;52.142;11.618;2023-03-01T05:17:23;-0.40;49.70
2749;DHT22;1382;52.142;11.618;2023-03-01T05:19:50;-0.40;49.60
2749;DHT22;1382;52.142;11.618;2023-03-01T05:22:17;-0.30;49.80
2749;DHT22;1382;52.142;11.618;2023-03-01T05:24:44;-0.40;49.70
2749;DHT22;1382;52.142;11.618;2023-03-01T05:27:11;-0.50;50.30
2749;DHT22;1382;52.142;11.618;2023-03-01T05:29:41;-0.50;49.60
2749;DHT22;1382;52.142;11.618;2023-03-01T05:32:12;-0.50;49.60
2749;DHT22;1382;52.142;11.618;2023-03-01T05:34:42;-0.40;49.60
2749;DHT22;1382;52.142;11.618;2023-03-01T05:37:09;-0.40;49.60
2749;DHT22;1382;52.142;11.618;2023-03-01T05:39:36;-0.60;49.50
2749;DHT22;1382;52.142;11.618;2023-03-01T05:42:04;-0.60;49.60
2749;DHT22;1382;52.142;11.618;2023-03-01T05:44:31;-0.60;49.50
2749;DHT22;1382;52.142;11.618;2023-03-01T05:46:58;-0.60;50.20
2749;DHT22;1382;52.142;11.618;2023-03-01T05:49:25;-0.60;49.50
2749;DHT22;1382;52.142;11.618;2023-03-01T05:51:53;-0.60;49.50
2749;DHT22;1382;52.142;11.618;2023-03-01T05:54:21;-0.70;49.40
2749;DHT22;1382;52.142;11.618;2023-03-01T05:56:50;-0.50;49.50
2749;DHT22;1382;52.142;11.618;2023-03-01T05:59:17;-0.70;49.40
2749;DHT22;1382;52.142;11.618;2023-03-01T06:01:44;-0.70;49.50
2749;DHT22;1382;52.142;11.618;2023-03-01T06:04:13;-0.70;49.50
2749;DHT22;1382;52.142;11.618;2023-03-01T06:06:39;-0.50;49.50
2749;DHT22;1382;52.142;11.618;2023-03-01T06:09:08;-0.70;49.40
2749;DHT22;1382;52.142;11.618;2023-03-01T06:11:35;-0.70;49.40
2749;DHT22;1382;52.142;11.618;2023-03-01T06:14:02;-0.80;49.30
2749;DHT22;1382;52.142;11.618;2023-03-01T06:16:31;-0.80;49.30
2749;DHT22;1382;52.142;11.618;2023-03-01T06:18:59;-0.80;49.30
2749;DHT22;1382;52.142;11.618;2023-03-01T06:21:26;-0.80;49.30
2749;DHT22;1382;52.142;11.618;2023-03-01T06:23:52;-0.80;49.30
2749;DHT22;1382;52.142;11.618;2023-03-01T06:26:20;-0.80;49.30
2749;DHT22;1382;52.142;11.618;2023-03-01T06:28:48;-0.80;49.40
2749;DHT22;1382;52.142;11.618;2023-03-01T06:31:15;-0.90;49.30
2749;DHT22;1382;52.142;11.618;2023-03-01T06:33:42;-0.80;49.40
2749;DHT22;1382;52.142;11.618;2023-03-01T06:36:09;-0.70;49.50
2749;DHT22;1382;52.142;11.618;2023-03-01T06:38:36;-0.90;49.30
2749;DHT22;1382;52.142;11.618;2023-03-01T06:41:03;-0.90;49.30
2749;DHT22;1382;52.142;11.618;2023-03-01T06:43:31;-0.90;49.30
2749;DHT22;1382;52.142;11.618;2023-03-01T06:45:58;-0.90;49.30
2749;DHT22;1382;52.142;11.618;2023-03-01T06:48:24;-0.90;49.30
2749;DHT22;1382;52.142;11.618;2023-03-01T06:50:51;-0.90;49.40
2749;DHT22;1382;52.142;11.618;2023-03-01T06:53:18;-0.90;49.40
2749;DHT22;1382;52.142;11.618;2023-03-01T06:55:45;-0.80;49.60
2749;DHT22;1382;52.142;11.618;2023-03-01T06:58:12;-0.90;49.50
2749;DHT22;1382;52.142;11.618;2023-03-01T07:00:40;-0.90;49.50
2749;DHT22;1382;52.142;11.618;2023-03-01T07:03:08;-0.70;49.70
2749;DHT22;1382;52.142;11.618;2023-03-01T07:05:35;-0.60;49.90
2749;DHT22;1382;52.142;11.618;2023-03-01T07:08:02;-0.80;49.80
2749;DHT22;1382;52.142;11.618;2023-03-01T07:10:29;-0.80;49.90
2749;DHT22;1382;52.142;11.618;2023-03-01T07:15:26;-0.70;50.10
2749;DHT22;1382;52.142;11.618;2023-03-01T07:17:55;-0.60;50.30
2749;DHT22;1382;52.142;11.618;2023-03-01T07:20:22;-0.60;50.30
2749;DHT22;1382;52.142;11.618;2023-03-01T07:22:49;-0.60;50.50
2749;DHT22;1382;52.142;11.618;2023-03-01T07:25:16;-0.60;50.60
2749;DHT22;1382;52.142;11.618;2023-03-01T07:27:43;-0.50;50.80
2749;DHT22;1382;52.142;11.618;2023-03-01T07:30:10;-0.40;51.00
2749;DHT22;1382;52.142;11.618;2023-03-01T07:32:37;-0.40;51.10
2749;DHT22;1382;52.142;11.618;2023-03-01T07:35:06;-0.30;51.30
2749;DHT22;1382;52.142;11.618;2023-03-01T07:37:33;-0.30;51.50
2749;DHT22;1382;52.142;11.618;2023-03-01T07:40:00;-0.20;51.70
2749;DHT22;1382;52.142;11.618;2023-03-01T07:42:27;0.00;52.00
2749;DHT22;1382;52.142;11.618;2023-03-01T07:44:53;-0.10;52.10
2749;DHT22;1382;52.142;11.618;2023-03-01T07:47:20;0.00;52.50
2749;DHT22;1382;52.142;11.618;2023-03-01T07:49:47;0.10;52.80
2749;DHT22;1382;52.142;11.618;2023-03-01T07:52:15;0.20;53.00
2749;DHT22;1382;52.142;11.618;2023-03-01T07:54:42;0.30;53.30
2749;DHT22;1382;52.142;11.618;2023-03-01T07:57:10;0.50;53.50
2749;DHT22;1382;52.142;11.618;2023-03-01T07:59:37;0.50;53.30
2749;DHT22;1382;52.142;11.618;2023-03-01T08:02:03;0.50;53.30
2749;DHT22;1382;52.142;11.618;2023-03-01T08:04:30;0.60;53.60
2749;DHT22;1382;52.142;11.618;2023-03-01T08:06:58;0.70;54.20
2749;DHT22;1382;52.142;11.618;2023-03-01T08:09:26;0.80;54.20
2749;DHT22;1382;52.142;11.618;2023-03-01T08:11:53;1.00;54.30
2749;DHT22;1382;52.142;11.618;2023-03-01T08:14:20;1.10;54.30
2749;DHT22;1382;52.142;11.618;2023-03-01T08:16:49;1.30;54.50
2749;DHT22;1382;52.142;11.618;2023-03-01T08:19:16;1.40;54.80
2749;DHT22;1382;52.142;11.618;2023-03-01T08:21:43;1.50;54.80
2749;DHT22;1382;52.142;11.618;2023-03-01T08:24:09;1.70;55.00
2749;DHT22;1382;52.142;11.618;2023-03-01T08:26:38;1.80;55.30
2749;DHT22;1382;52.142;11.618;2023-03-01T08:29:05;1.90;55.40
2749;DHT22;1382;52.142;11.618;2023-03-01T08:31:34;2.00;55.30
2749;DHT22;1382;52.142;11.618;2023-03-01T08:34:03;2.20;55.40
2749;DHT22;1382;52.142;11.618;2023-03-01T08:36:31;2.30;55.40
2749;DHT22;1382;52.142;11.618;2023-03-01T08:38:59;2.50;55.40
2749;DHT22;1382;52.142;11.618;2023-03-01T08:41:26;2.50;55.90
2749;DHT22;1382;52.142;11.618;2023-03-01T08:43:55;2.50;55.20
2749;DHT22;1382;52.142;11.618;2023-03-01T08:46:21;2.80;55.40
2749;DHT22;1382;52.142;11.618;2023-03-01T08:48:48;3.00;55.20
2749;DHT22;1382;52.142;11.618;2023-03-01T08:51:17;3.10;55.20
2749;DHT22;1382;52.142;11.618;2023-03-01T08:53:47;3.30;55.00
2749;DHT22;1382;52.142;11.618;2023-03-01T08:56:15;3.40;55.00
2749;DHT22;1382;52.142;11.618;2023-03-01T08:58:44;3.50;55.00
2749;DHT22;1382;52.142;11.618;2023-03-01T09:01:15;3.70;54.90
2749;DHT22;1382;52.142;11.618;2023-03-01T09:03:42;3.90;54.90
2749;DHT22;1382;52.142;11.618;2023-03-01T09:06:09;4.00;55.00
2749;DHT22;1382;52.142;11.618;2023-03-01T09:08:37;4.10;55.00
2749;DHT22;1382;52.142;11.618;2023-03-01T09:11:06;4.30;55.00
2749;DHT22;1382;52.142;11.618;2023-03-01T09:13:32;4.50;55.10
2749;DHT22;1382;52.142;11.618;2023-03-01T09:16:02;4.60;55.20
2749;DHT22;1382;52.142;11.618;2023-03-01T09:18:31;4.80;55.20
2749;DHT22;1382;52.142;11.618;2023-03-01T09:21:01;4.90;55.30
2749;DHT22;1382;52.142;11.618;2023-03-01T09:23:28;5.00;55.40
2749;DHT22;1382;52.142;11.618;2023-03-01T09:25:54;5.20;55.60
2749;DHT22;1382;52.142;11.618;2023-03-01T09:28:21;5.30;55.60
2749;DHT22;1382;52.142;11.618;2023-03-01T09:30:57;5.50;55.70
2749;DHT22;1382;52.142;11.618;2023-03-01T09:33:24;5.60;55.50
2749;DHT22;1382;52.142;11.618;2023-03-01T09:35:57;5.80;55.80
2749;DHT22;1382;52.142;11.618;2023-03-01T09:38:24;5.90;55.80
2749;DHT22;1382;52.142;11.618;2023-03-01T09:40:53;6.30;56.00
2749;DHT22;1382;52.142;11.618;2023-03-01T09:43:23;6.20;55.90
2749;DHT22;1382;52.142;11.618;2023-03-01T09:45:54;6.40;56.20
2749;DHT22;1382;52.142;11.618;2023-03-01T09:48:26;6.60;56.40
2749;DHT22;1382;52.142;11.618;2023-03-01T09:50:54;6.60;56.40
2749;DHT22;1382;52.142;11.618;2023-03-01T09:53:27;6.80;56.60
2749;DHT22;1382;52.142;11.618;2023-03-01T09:56:00;7.00;56.90
2749;DHT22;1382;52.142;11.618;2023-03-01T09:58:37;7.10;56.90
2749;DHT22;1382;52.142;11.618;2023-03-01T10:01:21;7.20;56.80
2749;DHT22;1382;52.142;11.618;2023-03-01T10:04:06;7.40;57.00
2749;DHT22;1382;52.142;11.618;2023-03-01T10:06:38;7.60;56.90
2749;DHT22;1382;52.142;11.618;2023-03-01T10:09:11;7.60;57.20
2749;DHT22;1382;52.142;11.618;2023-03-01T10:11:43;7.80;56.00
2749;DHT22;1382;52.142;11.618;2023-03-01T10:14:18;7.90;56.20
2749;DHT22;1382;52.142;11.618;2023-03-01T10:16:52;8.00;57.20
2749;DHT22;1382;52.142;11.618;2023-03-01T10:19:24;8.20;56.70
2749;DHT22;1382;52.142;11.618;2023-03-01T10:21:52;8.30;55.60
2749;DHT22;1382;52.142;11.618;2023-03-01T10:24:20;8.50;56.00
2749;DHT22;1382;52.142;11.618;2023-03-01T10:26:54;8.60;57.30
2749;DHT22;1382;52.142;11.618;2023-03-01T10:29:24;8.80;58.00
2749;DHT22;1382;52.142;11.618;2023-03-01T10:31:53;8.90;57.70
2749;DHT22;1382;52.142;11.618;2023-03-01T10:34:22;9.00;57.30
2749;DHT22;1382;52.142;11.618;2023-03-01T10:36:50;9.20;57.30
2749;DHT22;1382;52.142;11.618;2023-03-01T10:39:20;9.30;57.60
2749;DHT22;1382;52.142;11.618;2023-03-01T10:41:57;9.40;57.90
2749;DHT22;1382;52.142;11.618;2023-03-01T10:44:40;9.60;58.20
2749;DHT22;1382;52.142;11.618;2023-03-01T10:47:17;9.70;57.80
2749;DHT22;1382;52.142;11.618;2023-03-01T10:49:53;9.80;58.10
2749;DHT22;1382;52.142;11.618;2023-03-01T10:52:21;9.90;58.30
2749;DHT22;1382;52.142;11.618;2023-03-01T10:54:54;10.00;58.00
2749;DHT22;1382;52.142;11.618;2023-03-01T10:57:29;10.10;57.80
2749;DHT22;1382;52.142;11.618;2023-03-01T11:00:14;10.30;58.50
2749;DHT22;1382;52.142;11.618;2023-03-01T11:02:42;10.40;58.10
2749;DHT22;1382;52.142;11.618;2023-03-01T11:05:18;10.40;58.10
2749;DHT22;1382;52.142;11.618;2023-03-01T11:07:51;10.60;58.30
2749;DHT22;1382;52.142;11.618;2023-03-01T11:10:20;10.70;58.00
2749;DHT22;1382;52.142;11.618;2023-03-01T11:12:50;10.80;57.70
2749;DHT22;1382;52.142;11.618;2023-03-01T11:15:24;10.90;57.70
2749;DHT22;1382;52.142;11.618;2023-03-01T11:17:51;11.00;57.80
2749;DHT22;1382;52.142;11.618;2023-03-01T11:20:27;11.10;57.90
2749;DHT22;1382;52.142;11.618;2023-03-01T11:22:59;11.20;57.90
2749;DHT22;1382;52.142;11.618;2023-03-01T11:25:31;11.30;57.90
2749;DHT22;1382;52.142;11.618;2023-03-01T11:28:02;11.40;57.40
2749;DHT22;1382;52.142;11.618;2023-03-01T11:30:32;11.50;56.40
2749;DHT22;1382;52.142;11.618;2023-03-01T11:33:11;11.60;56.90
2749;DHT22;1382;52.142;11.618;2023-03-01T11:35:44;11.70;56.90
2749;DHT22;1382;52.142;11.618;2023-03-01T11:38:19;11.70;56.00
2749;DHT22;1382;52.142;11.618;2023-03-01T11:40:50;11.90;54.40
2749;DHT22;1382;52.142;11.618;2023-03-01T11:43:28;11.90;55.50
2749;DHT22;1382;52.142;11.618;2023-03-01T11:46:18;12.00;56.90
2749;DHT22;1382;52.142;11.618;2023-03-01T11:48:56;12.10;57.10
2749;DHT22;1382;52.142;11.618;2023-03-01T11:51:31;12.20;57.10
2749;DHT22;1382;52.142;11.618;2023-03-01T11:54:13;12.30;57.60
2749;DHT22;1382;52.142;11.618;2023-03-01T11:56:46;12.40;57.50
2749;DHT22;1382;52.142;11.618;2023-03-01T11:59:40;12.40;57.00
2749;DHT22;1382;52.142;11.618;2023-03-01T12:05:33;12.60;57.10
2749;DHT22;1382;52.142;11.618;2023-03-01T12:08:07;12.70;57.20
2749;DHT22;1382;52.142;11.618;2023-03-01T12:10:43;12.80;57.80
2749;DHT22;1382;52.142;11.618;2023-03-01T12:13:41;13.00;57.50
2749;DHT22;1382;52.142;11.618;2023-03-01T12:16:23;13.00;57.10
2749;DHT22;1382;52.142;11.618;2023-03-01T12:19:30;13.00;57.40
2749;DHT22;1382;52.142;11.618;2023-03-01T12:22:27;13.10;57.00
2749;DHT22;1382;52.142;11.618;2023-03-01T12:25:21;13.20;54.80
2749;DHT22;1382;52.142;11.618;2023-03-01T12:28:01;13.30;56.50
2749;DHT22;1382;52.142;11.618;2023-03-01T12:30:38;13.30;56.40
2749;DHT22;1382;52.142;11.618;2023-03-01T12:33:19;13.30;57.40
2749;DHT22;1382;52.142;11.618;2023-03-01T12:36:18;13.40;56.00
2749;DHT22;1382;52.142;11.618;2023-03-01T12:38:50;13.60;56.20
2749;DHT22;1382;52.142;11.618;2023-03-01T12:41:34;13.50;55.80
2749;DHT22;1382;52.142;11.618;2023-03-01T12:44:13;13.50;54.70
2749;DHT22;1382;52.142;11.618;2023-03-01T12:46:52;13.50;54.10
2749;DHT22;1382;52.142;11.618;2023-03-01T12:49:28;13.70;54.60
2749;DHT22;1382;52.142;11.618;2023-03-01T12:51:59;13.60;53.00
2749;DHT22;1382;52.142;11.618;2023-03-01T12:54:28;13.70;52.70
2749;DHT22;1382;52.142;11.618;2023-03-01T12:56:57;13.70;51.40
2749;DHT22;1382;52.142;11.618;2023-03-01T12:59:33;13.80;50.70
2749;DHT22;1382;52.142;11.618;2023-03-01T13:02:13;13.90;52.10
2749;DHT22;1382;52.142;11.618;2023-03-01T13:05:00;13.90;50.50
2749;DHT22;1382;52.142;11.618;2023-03-01T13:07:36;13.90;50.30
2749;DHT22;1382;52.142;11.618;2023-03-01T13:10:15;14.00;50.50
2749;DHT22;1382;52.142;11.618;2023-03-01T13:12:46;14.00;49.00
2749;DHT22;1382;52.142;11.618;2023-03-01T13:15:31;14.00;49.40
2749;DHT22;1382;52.142;11.618;2023-03-01T13:18:00;14.10;48.60
2749;DHT22;1382;52.142;11.618;2023-03-01T13:20:31;14.00;49.40
2749;DHT22;1382;52.142;11.618;2023-03-01T13:23:24;14.00;48.20
2749;DHT22;1382;52.142;11.618;2023-03-01T13:26:11;14.10;48.20
2749;DHT22;1382;52.142;11.618;2023-03-01T13:28:50;14.00;45.40
2749;DHT22;1382;52.142;11.618;2023-03-01T13:34:57;14.10;48.20
2749;DHT22;1382;52.142;11.618;2023-03-01T13:37:36;14.20;47.70
2749;DHT22;1382;52.142;11.618;2023-03-01T13:42:51;14.20;44.30
2749;DHT22;1382;52.142;11.618;2023-03-01T13:45:38;14.20;44.90
2749;DHT22;1382;52.142;11.618;2023-03-01T13:48:10;14.30;46.50
2749;DHT22;1382;52.142;11.618;2023-03-01T13:50:43;14.30;47.40
2749;DHT22;1382;52.142;11.618;2023-03-01T13:53:17;14.30;46.90
2749;DHT22;1382;52.142;11.618;2023-03-01T13:55:46;14.30;46.20
2749;DHT22;1382;52.142;11.618;2023-03-01T14:00:43;14.30;46.50
2749;DHT22;1382;52.142;11.618;2023-03-01T14:03:13;14.30;46.50
2749;DHT22;1382;52.142;11.618;2023-03-01T14:05:41;14.40;46.60
2749;DHT22;1382;52.142;11.618;2023-03-01T14:08:25;14.40;46.50
2749;DHT22;1382;52.142;11.618;2023-03-01T14:11:04;14.40;46.10
2749;DHT22;1382;52.142;11.618;2023-03-01T14:13:50;14.30;45.10
2749;DHT22;1382;52.142;11.618;2023-03-01T14:16:29;14.40;45.20
2749;DHT22;1382;52.142;11.618;2023-03-01T14:19:10;14.30;45.10
2749;DHT22;1382;52.142;11.618;2023-03-01T14:21:59;14.30;44.70
2749;DHT22;1382;52.142;11.618;2023-03-01T14:24:28;14.30;43.10
2749;DHT22;1382;52.142;11.618;2023-03-01T14:26:55;14.50;44.60
2749;DHT22;1382;52.142;11.618;2023-03-01T14:29:36;14.30;45.10
2749;DHT22;1382;52.142;11.618;2023-03-01T14:32:12;14.40;43.70
2749;DHT22;1382;52.142;11.618;2023-03-01T14:34:43;14.30;45.10
2749;DHT22;1382;52.142;11.618;2023-03-01T14:37:11;14.30;41.50
2749;DHT22;1382;52.142;11.618;2023-03-01T14:39:45;14.30;44.70
2749;DHT22;1382;52.142;11.618;2023-03-01T14:42:12;14.30;44.40
2749;DHT22;1382;52.142;11.618;2023-03-01T14:44:42;14.20;44.50
2749;DHT22;1382;52.142;11.618;2023-03-01T14:47:11;14.30;44.70
2749;DHT22;1382;52.142;11.618;2023-03-01T14:49:38;14.20;44.00
2749;DHT22;1382;52.142;11.618;2023-03-01T14:52:07;14.20;44.60
2749;DHT22;1382;52.142;11.618;2023-03-01T14:54:47;14.10;43.80
2749;DHT22;1382;52.142;11.618;2023-03-01T14:57:16;14.10;44.10
2749;DHT22;1382;52.142;11.618;2023-03-01T14:59:43;14.00;43.10
2749;DHT22;1382;52.142;11.618;2023-03-01T15:02:14;14.00;43.80
2749;DHT22;1382;52.142;11.618;2023-03-01T15:04:42;14.00;42.70
2749;DHT22;1382;52.142;11.618;2023-03-01T15:07:11;13.90;43.10
2749;DHT22;1382;52.142;11.618;2023-03-01T15:09:39;13.90;43.40
2749;DHT22;1382;52.142;11.618;2023-03-01T15:12:35;13.80;44.00
2749;DHT22;1382;52.142;11.618;2023-03-01T15:15:20;13.80;43.30
2749;DHT22;1382;52.142;11.618;2023-03-01T15:17:52;13.80;43.10
2749;DHT22;1382;52.142;11.618;2023-03-01T15:20:19;13.70;44.00
2749;DHT22;1382;52.142;11.618;2023-03-01T15:22:47;13.60;43.50
2749;DHT22;1382;52.142;11.618;2023-03-01T15:25:15;13.60;44.00
2749;DHT22;1382;52.142;11.618;2023-03-01T15:27:47;13.60;44.00
2749;DHT22;1382;52.142;11.618;2023-03-01T15:30:19;13.60;44.20
2749;DHT22;1382;52.142;11.618;2023-03-01T15:32:47;13.50;44.20
2749;DHT22;1382;52.142;11.618;2023-03-01T15:35:39;13.50;44.20
2749;DHT22;1382;52.142;11.618;2023-03-01T15:38:24;13.50;44.00
2749;DHT22;1382;52.142;11.618;2023-03-01T15:40:52;13.40;43.90
2749;DHT22;1382;52.142;11.618;2023-03-01T15:43:40;13.30;43.80
2749;DHT22;1382;52.142;11.618;2023-03-01T15:46:16;13.30;44.40
2749;DHT22;1382;52.142;11.618;2023-03-01T15:48:45;13.30;44.10
2749;DHT22;1382;52.142;11.618;2023-03-01T15:51:13;13.20;44.20
2749;DHT22;1382;52.142;11.618;2023-03-01T15:53:40;13.20;43.60
2749;DHT22;1382;52.142;11.618;2023-03-01T15:56:19;13.20;43.80
2749;DHT22;1382;52.142;11.618;2023-03-01T15:58:48;13.30;44.40
2749;DHT22;1382;52.142;11.618;2023-03-01T16:01:15;13.10;44.10
2749;DHT22;1382;52.142;11.618;2023-03-01T16:03:43;13.20;45.00
2749;DHT22;1382;52.142;11.618;2023-03-01T16:06:11;13.10;44.30
2749;DHT22;1382;52.142;11.618;2023-03-01T16:08:38;13.10;44.40
2749;DHT22;1382;52.142;11.618;2023-03-01T16:11:11;13.10;44.30
2749;DHT22;1382;52.142;11.618;2023-03-01T16:13:39;13.00;44.40
2749;DHT22;1382;52.142;11.618;2023-03-01T16:16:09;13.00;44.80
2749;DHT22;1382;52.142;11.618;2023-03-01T16:18:36;12.90;44.50
2749;DHT22;1382;52.142;11.618;2023-03-01T16:21:04;12.90;45.30
2749;DHT22;1382;52.142;11.618;2023-03-01T16:23:31;12.90;45.30
2749;DHT22;1382;52.142;11.618;2023-03-01T16:25:58;12.80;45.20
2749;DHT22;1382;52.142;11.618;2023-03-01T16:28:25;12.80;45.30
2749;DHT22;1382;52.142;11.618;2023-03-01T16:30:54;12.70;45.10
2749;DHT22;1382;52.142;11.618;2023-03-01T16:33:23;12.60;45.00